BCS8NX EBBR-EGNX
Flight info
| Callsign | BCS8NX |
|---|---|
| Flight time | 1h 7m |
| Altitude | 32000 |
| Route | DENUT L610 HEMEL |
| Aircraft | B738/M-SDE2E3FGHIRWXY/LB1 |
Departure
| Time | 2026-05-07 15:38 |
|---|---|
| Airport | Brussels Airport (EBBR) |
Arrival
| Time | 2026-05-07 16:45 |
|---|---|
| Airport | East Midlands Airport (EGNX) |
| Time | Latitude | Longitude | Altitude | Speed | Heading |
|---|---|---|---|---|---|
| 2026-05-07 15:10 | 50.90452 | 4.46359 | 131 ft | 0 kts | 335° |
| 2026-05-07 15:25 | 50.90450 | 4.46360 | 131 ft | 2 kts | 335° |
| 2026-05-07 15:25 | 50.90427 | 4.46377 | 127 ft | 4 kts | 336° |
| 2026-05-07 15:25 | 50.90402 | 4.46394 | 125 ft | 4 kts | 340° |
| 2026-05-07 15:26 | 50.90377 | 4.46405 | 126 ft | 4 kts | 359° |
| 2026-05-07 15:26 | 50.90358 | 4.46398 | 128 ft | 3 kts | 71° |
| 2026-05-07 15:26 | 50.90357 | 4.46393 | 129 ft | 1 kts | 79° |
| 2026-05-07 15:29 | 50.90361 | 4.46427 | 129 ft | 10 kts | 83° |
| 2026-05-07 15:30 | 50.90332 | 4.46602 | 127 ft | 23 kts | 114° |
| 2026-05-07 15:30 | 50.90299 | 4.46707 | 127 ft | 0 kts | 115° |
| 2026-05-07 15:31 | 50.90276 | 4.46783 | 124 ft | 13 kts | 115° |
| 2026-05-07 15:31 | 50.90225 | 4.46944 | 125 ft | 24 kts | 117° |
| 2026-05-07 15:31 | 50.90182 | 4.47194 | 122 ft | 22 kts | 72° |
| 2026-05-07 15:31 | 50.90195 | 4.47244 | 121 ft | 14 kts | 65° |
| 2026-05-07 15:32 | 50.90283 | 4.47547 | 119 ft | 36 kts | 65° |
| 2026-05-07 15:32 | 50.90378 | 4.47871 | 120 ft | 31 kts | 65° |
| 2026-05-07 15:32 | 50.90465 | 4.48174 | 119 ft | 29 kts | 65° |
| 2026-05-07 15:32 | 50.90547 | 4.48458 | 118 ft | 27 kts | 65° |
| 2026-05-07 15:33 | 50.90623 | 4.48721 | 119 ft | 26 kts | 65° |
| 2026-05-07 15:33 | 50.90694 | 4.48970 | 118 ft | 24 kts | 65° |
| 2026-05-07 15:33 | 50.90768 | 4.49224 | 121 ft | 28 kts | 65° |
| 2026-05-07 15:33 | 50.90862 | 4.49547 | 120 ft | 35 kts | 65° |
| 2026-05-07 15:34 | 50.90931 | 4.49781 | 122 ft | 0 kts | 59° |
| 2026-05-07 15:34 | 50.90939 | 4.49798 | 118 ft | 10 kts | 47° |
| 2026-05-07 15:34 | 50.91025 | 4.49908 | 118 ft | 0 kts | 27° |
| 2026-05-07 15:34 | 50.91099 | 4.49939 | 119 ft | 18 kts | 357° |
| 2026-05-07 15:35 | 50.91124 | 4.49812 | 118 ft | 20 kts | 239° |
| 2026-05-07 15:35 | 50.91073 | 4.49662 | 117 ft | 12 kts | 245° |
| 2026-05-07 15:35 | 50.91065 | 4.49632 | 117 ft | 0 kts | 245° |
| 2026-05-07 15:37 | 50.90943 | 4.49212 | 117 ft | 92 kts | 245° |
| 2026-05-07 15:37 | 50.90554 | 4.47864 | 140 ft | 174 kts | 246° |
| 2026-05-07 15:38 | 50.90024 | 4.45989 | 1052 ft | 187 kts | 247° |
| 2026-05-07 15:38 | 50.89714 | 4.44725 | 2065 ft | 177 kts | 251° |
| 2026-05-07 15:38 | 50.89403 | 4.42981 | 3527 ft | 158 kts | 259° |
| 2026-05-07 15:38 | 50.89401 | 4.40767 | 4976 ft | 151 kts | 281° |
| 2026-05-07 15:39 | 50.89620 | 4.39602 | 5282 ft | 172 kts | 294° |
| 2026-05-07 15:39 | 50.90250 | 4.37943 | 5987 ft | 194 kts | 307° |
| 2026-05-07 15:39 | 50.91316 | 4.36234 | 6023 ft | 241 kts | 321° |
| 2026-05-07 15:39 | 50.92835 | 4.34654 | 6017 ft | 288 kts | 332° |
| 2026-05-07 15:40 | 50.94827 | 4.33309 | 6044 ft | 335 kts | 341° |
| 2026-05-07 15:40 | 50.97228 | 4.32341 | 6017 ft | 378 kts | 349° |
| 2026-05-07 15:40 | 50.99933 | 4.31860 | 6002 ft | 391 kts | 357° |
| 2026-05-07 15:40 | 51.02571 | 4.31948 | 5976 ft | 370 kts | 5° |
| 2026-05-07 15:41 | 51.05027 | 4.32581 | 5980 ft | 346 kts | 13° |
| 2026-05-07 15:41 | 51.07272 | 4.33611 | 5986 ft | 326 kts | 13° |
| 2026-05-07 15:41 | 51.09460 | 4.33717 | 5996 ft | 308 kts | 348° |
| 2026-05-07 15:41 | 51.11367 | 4.32451 | 5990 ft | 292 kts | 323° |
| 2026-05-07 15:42 | 51.12671 | 4.30127 | 5987 ft | 276 kts | 297° |
| 2026-05-07 15:42 | 51.13270 | 4.27284 | 5979 ft | 270 kts | 277° |
| 2026-05-07 15:42 | 51.13452 | 4.24289 | 5981 ft | 268 kts | 275° |
| 2026-05-07 15:42 | 51.13627 | 4.21374 | 5957 ft | 266 kts | 275° |
| 2026-05-07 15:43 | 51.13804 | 4.18442 | 5947 ft | 265 kts | 275° |
| 2026-05-07 15:43 | 51.13979 | 4.15560 | 6170 ft | 251 kts | 275° |
| 2026-05-07 15:43 | 51.14136 | 4.13001 | 6997 ft | 213 kts | 275° |
| 2026-05-07 15:43 | 51.14275 | 4.10812 | 7486 ft | 187 kts | 275° |
| 2026-05-07 15:44 | 51.14404 | 4.08777 | 7543 ft | 186 kts | 275° |
| 2026-05-07 15:44 | 51.14538 | 4.06653 | 7332 ft | 197 kts | 275° |
| 2026-05-07 15:44 | 51.14673 | 4.04506 | 7362 ft | 196 kts | 275° |
| 2026-05-07 15:44 | 51.14809 | 4.02332 | 7360 ft | 196 kts | 275° |
| 2026-05-07 15:45 | 51.14943 | 4.00195 | 7374 ft | 196 kts | 275° |
| 2026-05-07 15:45 | 51.15083 | 3.97944 | 7415 ft | 219 kts | 275° |
| 2026-05-07 15:45 | 51.15240 | 3.95360 | 7667 ft | 248 kts | 274° |
| 2026-05-07 15:45 | 51.15221 | 3.92479 | 7913 ft | 277 kts | 265° |
| 2026-05-07 15:46 | 51.15416 | 3.85684 | 8372 ft | 336 kts | 283° |
| 2026-05-07 15:46 | 51.16216 | 3.82075 | 8590 ft | 361 kts | 294° |
| 2026-05-07 15:46 | 51.17477 | 3.78491 | 9164 ft | 373 kts | 302° |
| 2026-05-07 15:47 | 51.18991 | 3.75099 | 9972 ft | 378 kts | 306° |
| 2026-05-07 15:47 | 51.20617 | 3.71778 | 10722 ft | 383 kts | 307° |
| 2026-05-07 15:47 | 51.22286 | 3.68426 | 11188 ft | 394 kts | 307° |
| 2026-05-07 15:47 | 51.23743 | 3.64691 | 11763 ft | 399 kts | 290° |
| 2026-05-07 15:48 | 51.24404 | 3.60396 | 12550 ft | 398 kts | 280° |
| 2026-05-07 15:48 | 51.24926 | 3.56060 | 13197 ft | 404 kts | 280° |
| 2026-05-07 15:48 | 51.25474 | 3.51651 | 13867 ft | 407 kts | 281° |
| 2026-05-07 15:48 | 51.26049 | 3.47198 | 14551 ft | 409 kts | 281° |
| 2026-05-07 15:49 | 51.26631 | 3.42741 | 15182 ft | 412 kts | 281° |
| 2026-05-07 15:49 | 51.27218 | 3.38258 | 15769 ft | 415 kts | 281° |
| 2026-05-07 15:49 | 51.27811 | 3.33713 | 16366 ft | 419 kts | 281° |
| 2026-05-07 15:49 | 51.28402 | 3.29165 | 16966 ft | 421 kts | 281° |
| 2026-05-07 15:50 | 51.28999 | 3.24568 | 17529 ft | 425 kts | 281° |
| 2026-05-07 15:50 | 51.29604 | 3.19883 | 18150 ft | 427 kts | 281° |
| 2026-05-07 15:50 | 51.30203 | 3.15231 | 18684 ft | 430 kts | 281° |
| 2026-05-07 15:50 | 51.30806 | 3.10528 | 19128 ft | 433 kts | 281° |
| 2026-05-07 15:51 | 51.31413 | 3.05786 | 19610 ft | 436 kts | 281° |
| 2026-05-07 15:51 | 51.32012 | 3.01086 | 20076 ft | 438 kts | 281° |
| 2026-05-07 15:51 | 51.32622 | 2.96286 | 20536 ft | 441 kts | 281° |
| 2026-05-07 15:51 | 51.33235 | 2.91441 | 20979 ft | 443 kts | 281° |
| 2026-05-07 15:52 | 51.33848 | 2.86580 | 21408 ft | 446 kts | 281° |
| 2026-05-07 15:52 | 51.34463 | 2.81695 | 21830 ft | 448 kts | 281° |
| 2026-05-07 15:52 | 51.35076 | 2.76802 | 22254 ft | 450 kts | 280° |
| 2026-05-07 15:52 | 51.35689 | 2.71873 | 22647 ft | 453 kts | 280° |
| 2026-05-07 15:53 | 51.36294 | 2.66951 | 23038 ft | 455 kts | 280° |
| 2026-05-07 15:53 | 51.36908 | 2.61927 | 23437 ft | 457 kts | 280° |
| 2026-05-07 15:53 | 51.37517 | 2.56920 | 23777 ft | 459 kts | 280° |
| 2026-05-07 15:53 | 51.38123 | 2.51921 | 24089 ft | 462 kts | 280° |
| 2026-05-07 15:54 | 51.38739 | 2.46831 | 24388 ft | 463 kts | 280° |
| 2026-05-07 15:54 | 51.39350 | 2.41758 | 24701 ft | 465 kts | 280° |
| 2026-05-07 15:54 | 51.39962 | 2.36666 | 24996 ft | 466 kts | 280° |
| 2026-05-07 15:54 | 51.40624 | 2.31576 | 25253 ft | 468 kts | 284° |
| 2026-05-07 15:55 | 51.41721 | 2.26666 | 25467 ft | 472 kts | 293° |
| 2026-05-07 15:55 | 51.43094 | 2.21894 | 25692 ft | 473 kts | 294° |
| 2026-05-07 15:55 | 51.44490 | 2.17124 | 25878 ft | 474 kts | 294° |
| 2026-05-07 15:55 | 51.45888 | 2.12329 | 26039 ft | 475 kts | 294° |
| 2026-05-07 15:56 | 51.47283 | 2.07496 | 26197 ft | 476 kts | 293° |
| 2026-05-07 15:56 | 51.48661 | 2.02668 | 26412 ft | 475 kts | 293° |
| 2026-05-07 15:56 | 51.50017 | 1.97871 | 26654 ft | 474 kts | 293° |
| 2026-05-07 15:56 | 51.51378 | 1.93023 | 26907 ft | 473 kts | 293° |
| 2026-05-07 15:57 | 51.52725 | 1.88206 | 27125 ft | 473 kts | 293° |
| 2026-05-07 15:57 | 51.54064 | 1.83399 | 27348 ft | 473 kts | 292° |
| 2026-05-07 15:57 | 51.55403 | 1.78586 | 27591 ft | 472 kts | 292° |
| 2026-05-07 15:57 | 51.56743 | 1.73760 | 27851 ft | 471 kts | 292° |
| 2026-05-07 15:58 | 51.58079 | 1.68938 | 28098 ft | 470 kts | 292° |
| 2026-05-07 15:58 | 51.59395 | 1.64183 | 28335 ft | 470 kts | 292° |
| 2026-05-07 15:58 | 51.60719 | 1.59387 | 28589 ft | 469 kts | 292° |
| 2026-05-07 15:58 | 51.62040 | 1.54594 | 28792 ft | 468 kts | 292° |
| 2026-05-07 15:59 | 51.63356 | 1.49812 | 28631 ft | 460 kts | 292° |
| 2026-05-07 15:59 | 51.64646 | 1.45116 | 27805 ft | 454 kts | 292° |
| 2026-05-07 15:59 | 51.65912 | 1.40496 | 27374 ft | 456 kts | 292° |
| 2026-05-07 15:59 | 51.67208 | 1.35750 | 27256 ft | 465 kts | 292° |
| 2026-05-07 16:00 | 51.68526 | 1.30913 | 26841 ft | 474 kts | 292° |
| 2026-05-07 16:00 | 51.69855 | 1.26029 | 26452 ft | 476 kts | 292° |
| 2026-05-07 16:00 | 51.71161 | 1.21223 | 26071 ft | 471 kts | 292° |
| 2026-05-07 16:00 | 51.72466 | 1.16416 | 25687 ft | 465 kts | 292° |
| 2026-05-07 16:01 | 51.73761 | 1.11630 | 25320 ft | 463 kts | 292° |
| 2026-05-07 16:01 | 51.75056 | 1.06837 | 24945 ft | 462 kts | 292° |
| 2026-05-07 16:01 | 51.76336 | 1.02085 | 24577 ft | 460 kts | 292° |
| 2026-05-07 16:01 | 51.77575 | 0.97478 | 24238 ft | 458 kts | 292° |
| 2026-05-07 16:02 | 51.78864 | 0.92674 | 23871 ft | 456 kts | 292° |
| 2026-05-07 16:02 | 51.80119 | 0.87985 | 23490 ft | 452 kts | 292° |
| 2026-05-07 16:02 | 51.81362 | 0.83337 | 23070 ft | 449 kts | 292° |
| 2026-05-07 16:02 | 51.82601 | 0.78693 | 22660 ft | 447 kts | 292° |
| 2026-05-07 16:03 | 51.83819 | 0.74115 | 22268 ft | 446 kts | 292° |
| 2026-05-07 16:03 | 51.85053 | 0.69468 | 21860 ft | 444 kts | 292° |
| 2026-05-07 16:03 | 51.86255 | 0.64936 | 21469 ft | 443 kts | 292° |
| 2026-05-07 16:03 | 51.87473 | 0.60329 | 21114 ft | 438 kts | 291° |
| 2026-05-07 16:04 | 51.88656 | 0.55851 | 21175 ft | 436 kts | 291° |
| 2026-05-07 16:04 | 51.89843 | 0.51346 | 21174 ft | 440 kts | 291° |
| 2026-05-07 16:04 | 51.91043 | 0.46780 | 21177 ft | 440 kts | 291° |
| 2026-05-07 16:04 | 51.92238 | 0.42224 | 21175 ft | 439 kts | 291° |
| 2026-05-07 16:05 | 51.93436 | 0.37655 | 21183 ft | 439 kts | 291° |
| 2026-05-07 16:05 | 51.94633 | 0.33075 | 21186 ft | 439 kts | 291° |
| 2026-05-07 16:05 | 51.95825 | 0.28507 | 21182 ft | 439 kts | 291° |
| 2026-05-07 16:05 | 51.97010 | 0.23954 | 21186 ft | 439 kts | 291° |
| 2026-05-07 16:06 | 51.98201 | 0.19371 | 21189 ft | 439 kts | 291° |
| 2026-05-07 16:06 | 51.99252 | 0.15318 | 21183 ft | 440 kts | 291° |
| 2026-05-07 16:06 | 52.00441 | 0.10723 | 21177 ft | 440 kts | 291° |
| 2026-05-07 16:06 | 52.01610 | 0.06199 | 21176 ft | 440 kts | 291° |
| 2026-05-07 16:07 | 52.02792 | 0.01612 | 21177 ft | 439 kts | 291° |
| 2026-05-07 16:07 | 52.03971 | -0.02970 | 21169 ft | 439 kts | 291° |
| 2026-05-07 16:07 | 52.05150 | -0.07562 | 21164 ft | 439 kts | 291° |
| 2026-05-07 16:07 | 52.06236 | -0.11800 | 20753 ft | 441 kts | 291° |
| 2026-05-07 16:08 | 52.07400 | -0.16348 | 20259 ft | 432 kts | 291° |
| 2026-05-07 16:08 | 52.08543 | -0.20823 | 19777 ft | 422 kts | 291° |
| 2026-05-07 16:08 | 52.09651 | -0.25171 | 19312 ft | 412 kts | 291° |
| 2026-05-07 16:08 | 52.10735 | -0.29430 | 18847 ft | 403 kts | 291° |
| 2026-05-07 16:09 | 52.11804 | -0.33643 | 18390 ft | 395 kts | 291° |
| 2026-05-07 16:09 | 52.12842 | -0.37745 | 17879 ft | 389 kts | 291° |
| 2026-05-07 16:09 | 52.13853 | -0.41744 | 17367 ft | 383 kts | 291° |
| 2026-05-07 16:09 | 52.14858 | -0.45728 | 16866 ft | 378 kts | 291° |
| 2026-05-07 16:10 | 52.15851 | -0.49671 | 16380 ft | 374 kts | 291° |
| 2026-05-07 16:10 | 52.16840 | -0.53603 | 15889 ft | 371 kts | 291° |
| 2026-05-07 16:10 | 52.17803 | -0.57440 | 15492 ft | 370 kts | 290° |
| 2026-05-07 16:10 | 52.18772 | -0.61308 | 15412 ft | 357 kts | 290° |
| 2026-05-07 16:11 | 52.19683 | -0.64944 | 15393 ft | 341 kts | 290° |
| 2026-05-07 16:11 | 52.20565 | -0.68472 | 15386 ft | 326 kts | 290° |
| 2026-05-07 16:11 | 52.21402 | -0.71829 | 15379 ft | 313 kts | 290° |
| 2026-05-07 16:11 | 52.22211 | -0.75074 | 15361 ft | 307 kts | 290° |
| 2026-05-07 16:12 | 52.23016 | -0.78318 | 14919 ft | 315 kts | 290° |
| 2026-05-07 16:12 | 52.23841 | -0.81646 | 14522 ft | 318 kts | 290° |
| 2026-05-07 16:12 | 52.24905 | -0.84865 | 14084 ft | 322 kts | 308° |
| 2026-05-07 16:12 | 52.26598 | -0.87226 | 13673 ft | 324 kts | 326° |
| 2026-05-07 16:13 | 52.28515 | -0.89126 | 13234 ft | 324 kts | 328° |
| 2026-05-07 16:13 | 52.30452 | -0.90983 | 12922 ft | 320 kts | 328° |
| 2026-05-07 16:13 | 52.32332 | -0.92794 | 12898 ft | 307 kts | 328° |
| 2026-05-07 16:13 | 52.34139 | -0.94560 | 12615 ft | 304 kts | 327° |
| 2026-05-07 16:14 | 52.35955 | -0.96357 | 12241 ft | 304 kts | 327° |
| 2026-05-07 16:14 | 52.37751 | -0.98140 | 11896 ft | 298 kts | 327° |
| 2026-05-07 16:14 | 52.39503 | -0.99867 | 11504 ft | 291 kts | 330° |
| 2026-05-07 16:14 | 52.41411 | -1.00785 | 11228 ft | 282 kts | 356° |
| 2026-05-07 16:15 | 52.43296 | -1.00451 | 11191 ft | 268 kts | 14° |
| 2026-05-07 16:15 | 52.45104 | -0.99665 | 11185 ft | 267 kts | 15° |
| 2026-05-07 16:15 | 52.46294 | -0.99124 | 11080 ft | 270 kts | 15° |
| 2026-05-07 16:15 | 52.48737 | -0.98014 | 10592 ft | 274 kts | 15° |
| 2026-05-07 16:16 | 52.49804 | -0.97534 | 10359 ft | 274 kts | 15° |
| 2026-05-07 16:16 | 52.51639 | -0.96718 | 9892 ft | 274 kts | 15° |
| 2026-05-07 16:16 | 52.53476 | -0.95905 | 9381 ft | 273 kts | 14° |
| 2026-05-07 16:16 | 52.55312 | -0.95096 | 8892 ft | 273 kts | 15° |
| 2026-05-07 16:17 | 52.57150 | -0.94286 | 8398 ft | 273 kts | 15° |
| 2026-05-07 16:17 | 52.58986 | -0.94028 | 8023 ft | 265 kts | 346° |
| 2026-05-07 16:17 | 52.60561 | -0.95327 | 7978 ft | 244 kts | 315° |
| 2026-05-07 16:17 | 52.61491 | -0.97491 | 7963 ft | 223 kts | 289° |
| 2026-05-07 16:18 | 52.61756 | -0.99969 | 7970 ft | 222 kts | 265° |
| 2026-05-07 16:18 | 52.61365 | -1.02394 | 7967 ft | 218 kts | 240° |
| 2026-05-07 16:18 | 52.60410 | -1.04279 | 7965 ft | 214 kts | 218° |
| 2026-05-07 16:18 | 52.59116 | -1.05464 | 7959 ft | 214 kts | 197° |
| 2026-05-07 16:19 | 52.57642 | -1.05869 | 7977 ft | 213 kts | 186° |
| 2026-05-07 16:19 | 52.56165 | -1.06054 | 7962 ft | 215 kts | 185° |
| 2026-05-07 16:19 | 52.54667 | -1.06227 | 7972 ft | 217 kts | 185° |
| 2026-05-07 16:19 | 52.53119 | -1.06414 | 7651 ft | 229 kts | 185° |
| 2026-05-07 16:20 | 52.51546 | -1.06611 | 7306 ft | 228 kts | 185° |
| 2026-05-07 16:20 | 52.49958 | -1.06812 | 7015 ft | 223 kts | 185° |
| 2026-05-07 16:20 | 52.48474 | -1.06670 | 6960 ft | 210 kts | 161° |
| 2026-05-07 16:20 | 52.47223 | -1.05471 | 6977 ft | 210 kts | 137° |
| 2026-05-07 16:21 | 52.46411 | -1.03526 | 6978 ft | 210 kts | 111° |
| 2026-05-07 16:21 | 52.46214 | -1.01171 | 6986 ft | 211 kts | 83° |
| 2026-05-07 16:21 | 52.46712 | -0.98889 | 6991 ft | 212 kts | 55° |
| 2026-05-07 16:21 | 52.47766 | -0.97247 | 6987 ft | 212 kts | 31° |
| 2026-05-07 16:22 | 52.49143 | -0.96418 | 6987 ft | 212 kts | 6° |
| 2026-05-07 16:22 | 52.50592 | -0.96760 | 6993 ft | 210 kts | 341° |
| 2026-05-07 16:22 | 52.51998 | -0.97454 | 6982 ft | 211 kts | 343° |
| 2026-05-07 16:22 | 52.53406 | -0.98134 | 6980 ft | 210 kts | 342° |
| 2026-05-07 16:23 | 52.54798 | -0.98806 | 6972 ft | 210 kts | 342° |
| 2026-05-07 16:23 | 52.56204 | -0.99487 | 6971 ft | 210 kts | 342° |
| 2026-05-07 16:23 | 52.57612 | -1.00169 | 6976 ft | 209 kts | 342° |
| 2026-05-07 16:23 | 52.59011 | -1.00847 | 6964 ft | 210 kts | 342° |
| 2026-05-07 16:24 | 52.60426 | -1.01532 | 6811 ft | 213 kts | 343° |
| 2026-05-07 16:24 | 52.61844 | -1.02219 | 6632 ft | 214 kts | 343° |
| 2026-05-07 16:24 | 52.63276 | -1.02912 | 6408 ft | 212 kts | 343° |
| 2026-05-07 16:24 | 52.64700 | -1.03429 | 6147 ft | 208 kts | 357° |
| 2026-05-07 16:25 | 52.66135 | -1.03423 | 5918 ft | 204 kts | 360° |
| 2026-05-07 16:25 | 52.67552 | -1.03430 | 5688 ft | 204 kts | 359° |
| 2026-05-07 16:25 | 52.68963 | -1.03446 | 5460 ft | 205 kts | 359° |
| 2026-05-07 16:25 | 52.70388 | -1.03464 | 5246 ft | 205 kts | 359° |
| 2026-05-07 16:26 | 52.71817 | -1.03484 | 5052 ft | 205 kts | 359° |
| 2026-05-07 16:26 | 52.73236 | -1.03465 | 5000 ft | 205 kts | 4° |
| 2026-05-07 16:26 | 52.74653 | -1.03268 | 4989 ft | 204 kts | 5° |
| 2026-05-07 16:26 | 52.76078 | -1.03045 | 4988 ft | 206 kts | 5° |
| 2026-05-07 16:27 | 52.77602 | -1.02808 | 5011 ft | 231 kts | 5° |
| 2026-05-07 16:27 | 52.79221 | -1.02559 | 4985 ft | 235 kts | 5° |
| 2026-05-07 16:27 | 52.80852 | -1.02314 | 4985 ft | 236 kts | 5° |
| 2026-05-07 16:27 | 52.82458 | -1.02657 | 4970 ft | 234 kts | 334° |
| 2026-05-07 16:28 | 52.83639 | -1.04369 | 4966 ft | 224 kts | 300° |
| 2026-05-07 16:28 | 52.84102 | -1.06715 | 4981 ft | 214 kts | 274° |
| 2026-05-07 16:28 | 52.84047 | -1.09165 | 4981 ft | 211 kts | 263° |
| 2026-05-07 16:28 | 52.83865 | -1.11592 | 4794 ft | 219 kts | 262° |
| 2026-05-07 16:29 | 52.83672 | -1.14103 | 4501 ft | 219 kts | 262° |
| 2026-05-07 16:29 | 52.83487 | -1.16590 | 4230 ft | 215 kts | 262° |
| 2026-05-07 16:29 | 52.83309 | -1.19021 | 3957 ft | 210 kts | 262° |
| 2026-05-07 16:29 | 52.83205 | -1.21408 | 3685 ft | 207 kts | 268° |
| 2026-05-07 16:30 | 52.83176 | -1.23762 | 3435 ft | 205 kts | 269° |
| 2026-05-07 16:30 | 52.83152 | -1.26113 | 3182 ft | 203 kts | 269° |
| 2026-05-07 16:30 | 52.83126 | -1.28420 | 3008 ft | 197 kts | 268° |
| 2026-05-07 16:30 | 52.83098 | -1.30685 | 2974 ft | 196 kts | 268° |
| 2026-05-07 16:31 | 52.83068 | -1.32929 | 2975 ft | 196 kts | 268° |
| 2026-05-07 16:31 | 52.83036 | -1.35192 | 2970 ft | 196 kts | 268° |
| 2026-05-07 16:31 | 52.83002 | -1.37431 | 2958 ft | 195 kts | 268° |
| 2026-05-07 16:31 | 52.82967 | -1.39681 | 2822 ft | 196 kts | 268° |
| 2026-05-07 16:32 | 52.82932 | -1.41907 | 2687 ft | 195 kts | 268° |
| 2026-05-07 16:32 | 52.82892 | -1.44167 | 2569 ft | 193 kts | 264° |
| 2026-05-07 16:32 | 52.82426 | -1.46185 | 2423 ft | 188 kts | 228° |
| 2026-05-07 16:32 | 52.81354 | -1.47226 | 2261 ft | 179 kts | 185° |
| 2026-05-07 16:33 | 52.80119 | -1.47428 | 2202 ft | 178 kts | 184° |
| 2026-05-07 16:33 | 52.78899 | -1.47648 | 2067 ft | 176 kts | 185° |
| 2026-05-07 16:33 | 52.77702 | -1.47980 | 2003 ft | 174 kts | 190° |
| 2026-05-07 16:33 | 52.76519 | -1.48480 | 2019 ft | 178 kts | 191° |
| 2026-05-07 16:34 | 52.75339 | -1.48954 | 2476 ft | 174 kts | 191° |
| 2026-05-07 16:34 | 52.74138 | -1.49453 | 2698 ft | 179 kts | 195° |
| 2026-05-07 16:34 | 52.72971 | -1.50142 | 2811 ft | 182 kts | 198° |
| 2026-05-07 16:34 | 52.71810 | -1.50949 | 2834 ft | 180 kts | 207° |
| 2026-05-07 16:35 | 52.70720 | -1.52033 | 2742 ft | 184 kts | 210° |
| 2026-05-07 16:35 | 52.69633 | -1.53167 | 2486 ft | 185 kts | 213° |
| 2026-05-07 16:35 | 52.68735 | -1.54651 | 2233 ft | 185 kts | 239° |
| 2026-05-07 16:35 | 52.68441 | -1.56686 | 2022 ft | 181 kts | 272° |
| 2026-05-07 16:36 | 52.68669 | -1.58632 | 1953 ft | 169 kts | 289° |
| 2026-05-07 16:36 | 52.69101 | -1.60344 | 1930 ft | 155 kts | 297° |
| 2026-05-07 16:36 | 52.69590 | -1.61879 | 1935 ft | 148 kts | 301° |
| 2026-05-07 16:36 | 52.70137 | -1.63321 | 1978 ft | 155 kts | 306° |
| 2026-05-07 16:37 | 52.70825 | -1.64759 | 1953 ft | 161 kts | 314° |
| 2026-05-07 16:37 | 52.71623 | -1.65969 | 1954 ft | 152 kts | 325° |
| 2026-05-07 16:37 | 52.72520 | -1.66882 | 1960 ft | 147 kts | 336° |
| 2026-05-07 16:37 | 52.73472 | -1.67512 | 1972 ft | 150 kts | 346° |
| 2026-05-07 16:38 | 52.74507 | -1.67929 | 1958 ft | 154 kts | 353° |
| 2026-05-07 16:38 | 52.75560 | -1.68105 | 1974 ft | 150 kts | 1° |
| 2026-05-07 16:38 | 52.76539 | -1.67771 | 1932 ft | 141 kts | 40° |
| 2026-05-07 16:38 | 52.77195 | -1.66571 | 1979 ft | 145 kts | 50° |
| 2026-05-07 16:39 | 52.77888 | -1.65368 | 1985 ft | 145 kts | 48° |
| 2026-05-07 16:39 | 52.78588 | -1.64166 | 1994 ft | 145 kts | 48° |
| 2026-05-07 16:39 | 52.79289 | -1.62952 | 1974 ft | 146 kts | 48° |
| 2026-05-07 16:39 | 52.79996 | -1.61738 | 1978 ft | 144 kts | 48° |
| 2026-05-07 16:40 | 52.80684 | -1.60554 | 1973 ft | 141 kts | 48° |
| 2026-05-07 16:40 | 52.81370 | -1.59377 | 1992 ft | 144 kts | 48° |
| 2026-05-07 16:40 | 52.82067 | -1.58180 | 1970 ft | 146 kts | 47° |
| 2026-05-07 16:40 | 52.82768 | -1.56968 | 1991 ft | 144 kts | 48° |
| 2026-05-07 16:41 | 52.83460 | -1.55770 | 1992 ft | 144 kts | 48° |
| 2026-05-07 16:41 | 52.84152 | -1.54573 | 1973 ft | 142 kts | 48° |
| 2026-05-07 16:41 | 52.84535 | -1.53147 | 1959 ft | 140 kts | 99° |
| 2026-05-07 16:41 | 52.84294 | -1.51518 | 1988 ft | 151 kts | 98° |
| 2026-05-07 16:42 | 52.84106 | -1.49847 | 1948 ft | 147 kts | 104° |
| 2026-05-07 16:42 | 52.83719 | -1.48255 | 1730 ft | 148 kts | 114° |
| 2026-05-07 16:42 | 52.83278 | -1.46730 | 1555 ft | 143 kts | 110° |
| 2026-05-07 16:42 | 52.82993 | -1.45212 | 1480 ft | 136 kts | 101° |
| 2026-05-07 16:43 | 52.82879 | -1.43648 | 1367 ft | 138 kts | 89° |
| 2026-05-07 16:43 | 52.82922 | -1.42073 | 1188 ft | 138 kts | 85° |
| 2026-05-07 16:43 | 52.82981 | -1.40478 | 1095 ft | 141 kts | 87° |
| 2026-05-07 16:43 | 52.83013 | -1.38872 | 929 ft | 139 kts | 90° |
| 2026-05-07 16:44 | 52.83031 | -1.37272 | 684 ft | 139 kts | 90° |
| 2026-05-07 16:44 | 52.83059 | -1.35712 | 470 ft | 133 kts | 91° |
| 2026-05-07 16:44 | 52.83081 | -1.34185 | 310 ft | 134 kts | 90° |
| 2026-05-07 16:44 | 52.83102 | -1.32807 | 300 ft | 104 kts | 86° |
| 2026-05-07 16:45 | 52.83117 | -1.32093 | 305 ft | 42 kts | 89° |
| 2026-05-07 16:45 | 52.83119 | -1.31801 | 307 ft | 0 kts | 89° |